»·PEaware :: WAT380 KOAK-KPDX

WAT380 :: KOAK-KPDX

FLIGHT INFORMATION

Flight Status: Arrived
Operator:
Walker Air Transport
More flights by this operator :: More flights under this callsign
Pilot: Spencer M. (27733)
Aircraft: BOEING 737-800
(B738)
More flights by this aircraft type
Origin: KOAK Metro Oakland Intl
United States
Destination: KPDX Portland Intl
United States
More flights between these airports :: More routes between these airports
Route: OAK5 OAK GRTFL MACHU TMBRS2
File this flight plan on PilotEdge
Remarks:
Altitude:
(Current/Filed)
34,000ft
Speed:
(Current/Filed)
450kts
Departed: 22-Feb-21 10:13 AM
Arrived: 22-Feb-21 11:32 AM
Distance/Time
Traveled:
472nm/1:19
Distance/Time
To Go:
Arrived

Flight Plot

Page will automatically refresh every two minutes.

Flight plan parsing failed; only flown route is shown


Map Options




Map Legend


Flown Route
Filed Route
Departure Airport
Arrival Airport
Navaid (VOR, NDB)
Fix

Horizontal Profiles

Position Reports

Time Latitude Longitude Heading Altitude Ground
Speed
22-Feb-21 09:34 37.710111 -122.216579 25 12ft 0kts
22-Feb-21 09:35 37.710111 -122.216579 25 12ft 0kts
22-Feb-21 09:36 37.710111 -122.216579 25 12ft 0kts
22-Feb-21 09:37 37.710111 -122.216579 25 12ft 0kts
22-Feb-21 09:38 37.710111 -122.216579 25 12ft 0kts
22-Feb-21 09:39 37.710111 -122.216579 25 12ft 0kts
22-Feb-21 09:40 37.710111 -122.216579 25 12ft 0kts
22-Feb-21 09:41 37.710111 -122.216579 25 12ft 0kts
22-Feb-21 09:42 37.710111 -122.216579 25 12ft 0kts
22-Feb-21 09:43 37.710111 -122.216579 25 12ft 0kts
22-Feb-21 09:44 37.710111 -122.216579 25 12ft 0kts
22-Feb-21 09:45 37.710111 -122.216579 25 12ft 0kts
22-Feb-21 09:46 37.710111 -122.216579 25 12ft 0kts
22-Feb-21 09:47 37.710111 -122.216579 25 12ft 0kts
22-Feb-21 09:48 37.710111 -122.216579 25 12ft 0kts
22-Feb-21 09:49 37.710111 -122.216579 25 12ft 0kts
22-Feb-21 09:50 37.710111 -122.216579 25 12ft 0kts
22-Feb-21 09:51 37.710111 -122.216579 25 12ft 0kts
22-Feb-21 09:52 37.710111 -122.216579 25 12ft 0kts
22-Feb-21 09:53 37.710111 -122.216579 25 12ft 0kts
22-Feb-21 09:54 37.710111 -122.216579 25 12ft 0kts
22-Feb-21 09:55 37.710111 -122.216579 25 12ft 0kts
22-Feb-21 09:56 37.710111 -122.216580 25 12ft 0kts
22-Feb-21 09:57 37.709885 -122.217190 107 12ft 2kts
22-Feb-21 09:58 37.710030 -122.217480 127 12ft 0kts
22-Feb-21 09:59 37.710030 -122.217480 127 12ft 0kts
22-Feb-21 10:00 37.710030 -122.217480 127 12ft 0kts
22-Feb-21 10:01 37.710030 -122.217480 127 12ft 0kts
22-Feb-21 10:02 37.710030 -122.217480 127 12ft 0kts
22-Feb-21 10:03 37.710029 -122.217480 127 12ft 0kts
22-Feb-21 10:04 37.708591 -122.216192 181 12ft 4kts
22-Feb-21 10:05 37.707418 -122.217169 224 12ft 4kts
22-Feb-21 10:06 37.705898 -122.217219 132 12ft 7kts
22-Feb-21 10:07 37.703980 -122.214278 139 12ft 9kts
22-Feb-21 10:08 37.702331 -122.213580 188 12ft 0kts
22-Feb-21 10:09 37.702331 -122.213580 188 12ft 0kts
22-Feb-21 10:10 37.702059 -122.213679 202 12ft 0kts
22-Feb-21 10:11 37.701977 -122.214989 309 12ft 14kts
22-Feb-21 10:12 37.725387 -122.251747 309 982ft 197kts
22-Feb-21 10:13 37.763362 -122.310445 315 2391ft 244kts
22-Feb-21 10:14 37.825459 -122.310193 34 5459ft 258kts
22-Feb-21 10:15 37.894161 -122.279248 5 8803ft 278kts
22-Feb-21 10:16 37.975682 -122.271393 6 10968ft 328kts
22-Feb-21 10:17 38.068894 -122.261655 5 13808ft 345kts
22-Feb-21 10:18 38.165866 -122.251464 5 16466ft 358kts
22-Feb-21 10:19 38.266695 -122.240830 4 18875ft 371kts
22-Feb-21 10:20 38.370906 -122.231425 358 21022ft 385kts
22-Feb-21 10:21 38.478748 -122.244102 355 22974ft 397kts
22-Feb-21 10:22 38.590319 -122.256443 355 24724ft 409kts
22-Feb-21 10:23 38.704894 -122.268594 355 26289ft 421kts
22-Feb-21 10:24 38.818923 -122.280567 355 27666ft 432kts
22-Feb-21 10:25 38.940006 -122.292539 355 28970ft 443kts
22-Feb-21 10:26 39.063735 -122.302647 355 30239ft 451kts
22-Feb-21 10:27 39.189238 -122.314265 353 31538ft 454kts
22-Feb-21 10:28 39.314317 -122.328827 352 32994ft 451kts
22-Feb-21 10:29 39.438158 -122.344517 352 34295ft 449kts
22-Feb-21 10:30 39.562854 -122.358742 352 34403ft 447kts
22-Feb-21 10:31 39.686377 -122.372234 352 34402ft 448kts
22-Feb-21 10:32 39.810556 -122.385621 352 34402ft 448kts
22-Feb-21 10:33 39.934566 -122.399035 352 34402ft 449kts
22-Feb-21 10:34 40.058142 -122.412432 352 34402ft 447kts
22-Feb-21 10:35 40.182098 -122.425905 352 34406ft 447kts
22-Feb-21 10:36 40.305732 -122.439401 352 34477ft 446kts
22-Feb-21 10:37 40.429121 -122.452925 352 34493ft 446kts
22-Feb-21 10:38 40.552076 -122.466435 351 34494ft 445kts
22-Feb-21 10:39 40.675212 -122.480044 351 34492ft 445kts
22-Feb-21 10:40 40.797912 -122.493636 351 34485ft 444kts
22-Feb-21 10:41 40.920793 -122.507292 350 34484ft 444kts
22-Feb-21 10:42 41.043210 -122.520957 350 34484ft 444kts
22-Feb-21 10:43 41.165748 -122.534677 350 34484ft 442kts
22-Feb-21 10:44 41.288017 -122.548412 350 34485ft 441kts
22-Feb-21 10:45 41.409635 -122.562121 349 34530ft 440kts
22-Feb-21 10:46 41.531604 -122.575889 350 34548ft 440kts
22-Feb-21 10:47 41.653597 -122.584242 351 34549ft 441kts
22-Feb-21 10:48 41.775541 -122.592061 351 34548ft 440kts
22-Feb-21 10:49 41.897295 -122.599979 351 34549ft 440kts
22-Feb-21 10:50 42.018986 -122.607921 350 34560ft 438kts
22-Feb-21 10:51 42.139852 -122.615871 350 34567ft 436kts
22-Feb-21 10:52 42.260746 -122.623927 350 34567ft 435kts
22-Feb-21 10:53 42.381332 -122.632010 350 34567ft 435kts
22-Feb-21 10:54 42.501639 -122.640089 350 34567ft 435kts
22-Feb-21 10:55 42.622395 -122.648209 350 34559ft 435kts
22-Feb-21 10:56 42.742634 -122.656335 349 34539ft 434kts
22-Feb-21 10:57 42.862322 -122.664442 349 34540ft 433kts
22-Feb-21 10:58 42.982353 -122.672682 349 34539ft 431kts
22-Feb-21 10:59 43.101728 -122.680848 349 34528ft 431kts
22-Feb-21 11:00 43.220687 -122.689003 348 34503ft 430kts
22-Feb-21 11:01 43.339578 -122.697186 348 34503ft 428kts
22-Feb-21 11:02 43.458235 -122.705387 348 34503ft 428kts
22-Feb-21 11:03 43.576452 -122.713562 348 34503ft 426kts
22-Feb-21 11:05 43.694585 -122.721727 348 34498ft 421kts
22-Feb-21 11:06 43.810362 -122.729751 348 34491ft 420kts
22-Feb-21 11:07 43.925902 -122.737814 348 33698ft 414kts
22-Feb-21 11:08 44.038198 -122.745592 346 31278ft 400kts
22-Feb-21 11:09 44.150019 -122.751737 351 29147ft 404kts
22-Feb-21 11:10 44.260451 -122.742423 353 27103ft 393kts
22-Feb-21 11:11 44.367544 -122.732083 353 25088ft 383kts
22-Feb-21 11:12 44.472428 -122.721794 353 23069ft 374kts
22-Feb-21 11:13 44.574113 -122.711769 353 21112ft 363kts
22-Feb-21 11:14 44.672953 -122.701836 354 19288ft 350kts
22-Feb-21 11:15 44.768842 -122.692164 354 17069ft 349kts
22-Feb-21 11:16 44.859365 -122.682800 354 15285ft 305kts
22-Feb-21 11:17 44.947585 -122.674065 354 13912ft 310kts
22-Feb-21 11:18 45.031514 -122.665525 354 12627ft 300kts
22-Feb-21 11:19 45.117367 -122.656835 355 11088ft 298kts
22-Feb-21 11:20 45.199444 -122.648437 355 9904ft 286kts
22-Feb-21 11:21 45.277170 -122.658729 332 8577ft 267kts
22-Feb-21 11:22 45.344891 -122.695726 331 7585ft 259kts
22-Feb-21 11:23 45.409825 -122.731337 330 6504ft 255kts
22-Feb-21 11:23 45.465584 -122.762043 331 5534ft 251kts
22-Feb-21 11:25 45.536438 -122.800064 334 4938ft 209kts
22-Feb-21 11:26 45.593034 -122.822838 337 4149ft 193kts
22-Feb-21 11:26 45.638156 -122.819002 31 3509ft 186kts
22-Feb-21 11:28 45.650163 -122.742248 114 2202ft 158kts
22-Feb-21 11:29 45.630485 -122.687078 123 1415ft 134kts
22-Feb-21 11:29 45.614440 -122.645402 121 750ft 135kts
22-Feb-21 11:31 45.593202 -122.591510 124 34ft 132kts
22-Feb-21 11:31 45.585270 -122.571076 119 26ft 30kts
22-Feb-21 11:32 45.583500 -122.569570 268 26ft 7kts
22-Feb-21 11:33 45.584799 -122.573260 294 26ft 15kts

Navigation Log

Ident Type
Flight plan parsing failed, navigation log unavailable